sensor_id;sensor_type;location;lat;lon;timestamp;P1;durP1;ratioP1;P2;durP2;ratioP2
60867;SDS011;46702;48.370;10.794;2022-08-27T00:00:35;8.05;;;4.38;;
60867;SDS011;46702;48.370;10.794;2022-08-27T00:03:01;7.63;;;4.50;;
60867;SDS011;46702;48.370;10.794;2022-08-27T00:05:27;7.82;;;3.97;;
60867;SDS011;46702;48.370;10.794;2022-08-27T00:07:52;9.60;;;4.60;;
60867;SDS011;46702;48.370;10.794;2022-08-27T00:10:19;7.00;;;4.60;;
60867;SDS011;46702;48.370;10.794;2022-08-27T00:12:47;6.50;;;4.35;;
60867;SDS011;46702;48.370;10.794;2022-08-27T00:15:13;8.13;;;4.82;;
60867;SDS011;46702;48.370;10.794;2022-08-27T00:17:40;6.38;;;4.90;;
60867;SDS011;46702;48.370;10.794;2022-08-27T00:20:06;7.35;;;4.32;;
60867;SDS011;46702;48.370;10.794;2022-08-27T00:22:32;7.97;;;4.30;;
60867;SDS011;46702;48.370;10.794;2022-08-27T00:24:58;6.60;;;4.28;;
60867;SDS011;46702;48.370;10.794;2022-08-27T00:27:24;9.68;;;4.50;;
60867;SDS011;46702;48.370;10.794;2022-08-27T00:29:50;7.38;;;4.57;;
60867;SDS011;46702;48.370;10.794;2022-08-27T00:32:16;6.22;;;4.60;;
60867;SDS011;46702;48.370;10.794;2022-08-27T00:34:41;7.82;;;4.93;;
60867;SDS011;46702;48.370;10.794;2022-08-27T00:37:07;7.97;;;5.00;;
60867;SDS011;46702;48.370;10.794;2022-08-27T00:39:33;7.53;;;4.43;;
60867;SDS011;46702;48.370;10.794;2022-08-27T00:42:00;8.18;;;5.22;;
60867;SDS011;46702;48.370;10.794;2022-08-27T00:44:27;7.00;;;4.50;;
60867;SDS011;46702;48.370;10.794;2022-08-27T00:46:54;7.78;;;4.60;;
60867;SDS011;46702;48.370;10.794;2022-08-27T00:49:33;6.55;;;4.70;;
60867;SDS011;46702;48.370;10.794;2022-08-27T00:52:23;7.07;;;4.85;;
60867;SDS011;46702;48.370;10.794;2022-08-27T00:54:53;9.68;;;4.68;;
60867;SDS011;46702;48.370;10.794;2022-08-27T00:57:24;7.18;;;4.70;;
60867;SDS011;46702;48.370;10.794;2022-08-27T00:59:51;7.85;;;4.45;;
60867;SDS011;46702;48.370;10.794;2022-08-27T01:02:17;7.57;;;4.57;;
60867;SDS011;46702;48.370;10.794;2022-08-27T01:05:05;6.13;;;4.95;;
60867;SDS011;46702;48.370;10.794;2022-08-27T01:07:36;7.20;;;4.50;;
60867;SDS011;46702;48.370;10.794;2022-08-27T01:10:06;6.30;;;4.45;;
60867;SDS011;46702;48.370;10.794;2022-08-27T01:12:34;6.70;;;4.25;;
60867;SDS011;46702;48.370;10.794;2022-08-27T01:15:02;6.10;;;4.40;;
60867;SDS011;46702;48.370;10.794;2022-08-27T01:17:30;7.68;;;4.70;;
60867;SDS011;46702;48.370;10.794;2022-08-27T01:19:57;6.32;;;4.80;;
60867;SDS011;46702;48.370;10.794;2022-08-27T01:25:18;8.18;;;4.95;;
60867;SDS011;46702;48.370;10.794;2022-08-27T01:30:13;7.82;;;4.70;;
60867;SDS011;46702;48.370;10.794;2022-08-27T01:32:41;7.90;;;4.82;;
60867;SDS011;46702;48.370;10.794;2022-08-27T01:35:08;8.15;;;5.40;;
60867;SDS011;46702;48.370;10.794;2022-08-27T01:37:36;7.38;;;4.90;;
60867;SDS011;46702;48.370;10.794;2022-08-27T01:40:02;5.47;;;4.18;;
60867;SDS011;46702;48.370;10.794;2022-08-27T01:42:30;10.88;;;5.25;;
60867;SDS011;46702;48.370;10.794;2022-08-27T01:44:59;8.77;;;5.10;;
60867;SDS011;46702;48.370;10.794;2022-08-27T01:47:34;7.47;;;4.88;;
60867;SDS011;46702;48.370;10.794;2022-08-27T01:50:00;10.13;;;5.38;;
60867;SDS011;46702;48.370;10.794;2022-08-27T01:52:31;8.43;;;5.68;;
60867;SDS011;46702;48.370;10.794;2022-08-27T01:54:57;9.50;;;5.20;;
60867;SDS011;46702;48.370;10.794;2022-08-27T01:57:23;7.60;;;5.60;;
60867;SDS011;46702;48.370;10.794;2022-08-27T01:59:50;9.98;;;6.03;;
60867;SDS011;46702;48.370;10.794;2022-08-27T02:02:16;10.85;;;6.45;;
60867;SDS011;46702;48.370;10.794;2022-08-27T02:04:42;7.65;;;5.70;;
60867;SDS011;46702;48.370;10.794;2022-08-27T02:07:09;9.48;;;6.63;;
60867;SDS011;46702;48.370;10.794;2022-08-27T02:09:35;8.50;;;6.03;;
60867;SDS011;46702;48.370;10.794;2022-08-27T02:12:00;10.75;;;6.40;;
60867;SDS011;46702;48.370;10.794;2022-08-27T02:14:26;8.23;;;6.22;;
60867;SDS011;46702;48.370;10.794;2022-08-27T02:16:53;10.13;;;5.95;;
60867;SDS011;46702;48.370;10.794;2022-08-27T02:19:19;7.63;;;6.07;;
60867;SDS011;46702;48.370;10.794;2022-08-27T02:21:45;7.97;;;5.88;;
60867;SDS011;46702;48.370;10.794;2022-08-27T02:24:12;8.23;;;5.80;;
60867;SDS011;46702;48.370;10.794;2022-08-27T02:26:38;9.30;;;6.28;;
60867;SDS011;46702;48.370;10.794;2022-08-27T02:29:04;11.25;;;5.72;;
60867;SDS011;46702;48.370;10.794;2022-08-27T02:31:30;10.20;;;5.68;;
60867;SDS011;46702;48.370;10.794;2022-08-27T02:33:56;7.85;;;5.53;;
60867;SDS011;46702;48.370;10.794;2022-08-27T02:36:22;10.40;;;5.72;;
60867;SDS011;46702;48.370;10.794;2022-08-27T02:38:48;7.72;;;5.32;;
60867;SDS011;46702;48.370;10.794;2022-08-27T02:41:14;6.38;;;4.97;;
60867;SDS011;46702;48.370;10.794;2022-08-27T02:43:41;7.57;;;5.38;;
60867;SDS011;46702;48.370;10.794;2022-08-27T02:46:07;7.20;;;4.65;;
60867;SDS011;46702;48.370;10.794;2022-08-27T02:48:35;6.32;;;4.22;;
60867;SDS011;46702;48.370;10.794;2022-08-27T02:51:01;5.72;;;4.10;;
60867;SDS011;46702;48.370;10.794;2022-08-27T02:53:29;4.75;;;4.03;;
60867;SDS011;46702;48.370;10.794;2022-08-27T02:55:54;4.32;;;3.92;;
60867;SDS011;46702;48.370;10.794;2022-08-27T02:58:20;4.32;;;3.92;;
60867;SDS011;46702;48.370;10.794;2022-08-27T03:00:45;7.55;;;4.10;;
60867;SDS011;46702;48.370;10.794;2022-08-27T03:03:11;4.60;;;3.70;;
60867;SDS011;46702;48.370;10.794;2022-08-27T03:05:37;4.75;;;3.50;;
60867;SDS011;46702;48.370;10.794;2022-08-27T03:08:04;5.25;;;3.65;;
60867;SDS011;46702;48.370;10.794;2022-08-27T03:10:30;6.00;;;3.97;;
60867;SDS011;46702;48.370;10.794;2022-08-27T03:12:56;4.20;;;3.15;;
60867;SDS011;46702;48.370;10.794;2022-08-27T03:15:22;4.70;;;3.60;;
60867;SDS011;46702;48.370;10.794;2022-08-27T03:17:48;4.72;;;3.83;;
60867;SDS011;46702;48.370;10.794;2022-08-27T03:20:32;5.30;;;3.45;;
60867;SDS011;46702;48.370;10.794;2022-08-27T03:23:02;4.30;;;3.60;;
60867;SDS011;46702;48.370;10.794;2022-08-27T03:25:27;3.97;;;3.58;;
60867;SDS011;46702;48.370;10.794;2022-08-27T03:27:53;4.78;;;3.60;;
60867;SDS011;46702;48.370;10.794;2022-08-27T03:30:20;4.43;;;3.45;;
60867;SDS011;46702;48.370;10.794;2022-08-27T03:32:47;5.47;;;4.28;;
60867;SDS011;46702;48.370;10.794;2022-08-27T03:35:13;5.50;;;3.67;;
60867;SDS011;46702;48.370;10.794;2022-08-27T03:37:38;6.22;;;3.95;;
60867;SDS011;46702;48.370;10.794;2022-08-27T03:40:05;5.80;;;4.18;;
60867;SDS011;46702;48.370;10.794;2022-08-27T03:42:32;4.18;;;3.78;;
60867;SDS011;46702;48.370;10.794;2022-08-27T03:44:59;4.28;;;3.83;;
60867;SDS011;46702;48.370;10.794;2022-08-27T03:47:25;5.13;;;3.72;;
60867;SDS011;46702;48.370;10.794;2022-08-27T03:49:50;4.47;;;3.72;;
60867;SDS011;46702;48.370;10.794;2022-08-27T03:52:17;4.72;;;3.55;;
60867;SDS011;46702;48.370;10.794;2022-08-27T03:54:43;5.28;;;4.68;;
60867;SDS011;46702;48.370;10.794;2022-08-27T03:57:09;4.47;;;3.70;;
60867;SDS011;46702;48.370;10.794;2022-08-27T03:59:35;5.45;;;4.05;;
60867;SDS011;46702;48.370;10.794;2022-08-27T04:02:02;5.85;;;4.28;;
60867;SDS011;46702;48.370;10.794;2022-08-27T04:04:28;5.28;;;4.18;;
60867;SDS011;46702;48.370;10.794;2022-08-27T04:06:55;5.85;;;4.30;;
60867;SDS011;46702;48.370;10.794;2022-08-27T04:09:21;5.28;;;4.20;;
60867;SDS011;46702;48.370;10.794;2022-08-27T04:11:47;5.15;;;4.50;;
60867;SDS011;46702;48.370;10.794;2022-08-27T04:14:12;6.15;;;4.35;;
60867;SDS011;46702;48.370;10.794;2022-08-27T04:16:38;5.22;;;4.70;;
60867;SDS011;46702;48.370;10.794;2022-08-27T04:19:04;6.57;;;4.53;;
60867;SDS011;46702;48.370;10.794;2022-08-27T04:21:30;4.50;;;3.92;;
60867;SDS011;46702;48.370;10.794;2022-08-27T04:23:58;4.47;;;3.70;;
60867;SDS011;46702;48.370;10.794;2022-08-27T04:26:24;5.00;;;4.50;;
60867;SDS011;46702;48.370;10.794;2022-08-27T04:28:50;4.57;;;3.55;;
60867;SDS011;46702;48.370;10.794;2022-08-27T04:31:16;6.30;;;4.35;;
60867;SDS011;46702;48.370;10.794;2022-08-27T04:33:42;5.35;;;4.50;;
60867;SDS011;46702;48.370;10.794;2022-08-27T04:36:09;6.43;;;4.43;;
60867;SDS011;46702;48.370;10.794;2022-08-27T04:38:35;4.85;;;4.35;;
60867;SDS011;46702;48.370;10.794;2022-08-27T04:41:02;5.53;;;4.63;;
60867;SDS011;46702;48.370;10.794;2022-08-27T04:43:43;7.63;;;4.75;;
60867;SDS011;46702;48.370;10.794;2022-08-27T04:46:18;6.28;;;4.35;;
60867;SDS011;46702;48.370;10.794;2022-08-27T04:48:45;4.88;;;4.13;;
60867;SDS011;46702;48.370;10.794;2022-08-27T04:51:10;5.30;;;4.43;;
60867;SDS011;46702;48.370;10.794;2022-08-27T04:53:36;7.05;;;4.78;;
60867;SDS011;46702;48.370;10.794;2022-08-27T04:56:01;8.15;;;5.22;;
60867;SDS011;46702;48.370;10.794;2022-08-27T04:58:28;6.18;;;4.68;;
60867;SDS011;46702;48.370;10.794;2022-08-27T05:00:54;6.15;;;5.10;;
60867;SDS011;46702;48.370;10.794;2022-08-27T05:03:23;7.13;;;4.88;;
60867;SDS011;46702;48.370;10.794;2022-08-27T05:05:50;5.93;;;4.28;;
60867;SDS011;46702;48.370;10.794;2022-08-27T05:08:17;5.77;;;4.47;;
60867;SDS011;46702;48.370;10.794;2022-08-27T05:10:44;5.30;;;3.80;;
60867;SDS011;46702;48.370;10.794;2022-08-27T05:13:12;5.97;;;4.82;;
60867;SDS011;46702;48.370;10.794;2022-08-27T05:15:38;6.72;;;4.95;;
60867;SDS011;46702;48.370;10.794;2022-08-27T05:18:04;6.15;;;5.05;;
60867;SDS011;46702;48.370;10.794;2022-08-27T05:20:32;9.10;;;5.03;;
60867;SDS011;46702;48.370;10.794;2022-08-27T05:22:58;6.53;;;4.82;;
60867;SDS011;46702;48.370;10.794;2022-08-27T05:25:25;6.43;;;4.82;;
60867;SDS011;46702;48.370;10.794;2022-08-27T05:27:51;5.75;;;4.53;;
60867;SDS011;46702;48.370;10.794;2022-08-27T05:30:17;7.65;;;5.30;;
60867;SDS011;46702;48.370;10.794;2022-08-27T05:32:43;7.57;;;5.38;;
60867;SDS011;46702;48.370;10.794;2022-08-27T05:35:09;7.63;;;5.20;;
60867;SDS011;46702;48.370;10.794;2022-08-27T05:37:34;7.53;;;5.50;;
60867;SDS011;46702;48.370;10.794;2022-08-27T05:40:01;6.68;;;5.13;;
60867;SDS011;46702;48.370;10.794;2022-08-27T05:42:30;7.88;;;5.50;;
60867;SDS011;46702;48.370;10.794;2022-08-27T05:44:56;7.25;;;5.32;;
60867;SDS011;46702;48.370;10.794;2022-08-27T05:47:22;7.70;;;5.25;;
60867;SDS011;46702;48.370;10.794;2022-08-27T05:49:51;7.70;;;5.63;;
60867;SDS011;46702;48.370;10.794;2022-08-27T05:52:18;6.18;;;4.90;;
60867;SDS011;46702;48.370;10.794;2022-08-27T05:54:44;8.93;;;5.75;;
60867;SDS011;46702;48.370;10.794;2022-08-27T05:57:10;8.38;;;5.88;;
60867;SDS011;46702;48.370;10.794;2022-08-27T05:59:35;7.80;;;5.43;;
60867;SDS011;46702;48.370;10.794;2022-08-27T06:02:20;8.50;;;6.10;;
60867;SDS011;46702;48.370;10.794;2022-08-27T06:04:45;6.68;;;5.72;;
60867;SDS011;46702;48.370;10.794;2022-08-27T06:07:11;6.93;;;5.97;;
60867;SDS011;46702;48.370;10.794;2022-08-27T06:09:37;7.82;;;5.57;;
60867;SDS011;46702;48.370;10.794;2022-08-27T06:12:04;7.38;;;5.97;;
60867;SDS011;46702;48.370;10.794;2022-08-27T06:14:30;6.97;;;5.95;;
60867;SDS011;46702;48.370;10.794;2022-08-27T06:16:55;7.63;;;5.85;;
60867;SDS011;46702;48.370;10.794;2022-08-27T06:19:24;7.82;;;6.35;;
60867;SDS011;46702;48.370;10.794;2022-08-27T06:21:50;7.65;;;5.70;;
60867;SDS011;46702;48.370;10.794;2022-08-27T06:24:16;8.68;;;6.32;;
60867;SDS011;46702;48.370;10.794;2022-08-27T06:26:43;7.88;;;5.70;;
60867;SDS011;46702;48.370;10.794;2022-08-27T06:29:09;8.82;;;5.88;;
60867;SDS011;46702;48.370;10.794;2022-08-27T06:31:36;10.40;;;6.40;;
60867;SDS011;46702;48.370;10.794;2022-08-27T06:34:03;7.32;;;6.22;;
60867;SDS011;46702;48.370;10.794;2022-08-27T06:36:31;9.95;;;6.40;;
60867;SDS011;46702;48.370;10.794;2022-08-27T06:38:58;10.02;;;6.65;;
60867;SDS011;46702;48.370;10.794;2022-08-27T06:41:24;8.38;;;5.78;;
60867;SDS011;46702;48.370;10.794;2022-08-27T06:43:52;8.63;;;6.18;;
60867;SDS011;46702;48.370;10.794;2022-08-27T06:46:20;8.73;;;6.20;;
60867;SDS011;46702;48.370;10.794;2022-08-27T06:48:47;8.35;;;5.95;;
60867;SDS011;46702;48.370;10.794;2022-08-27T06:51:16;7.93;;;6.15;;
60867;SDS011;46702;48.370;10.794;2022-08-27T06:53:44;7.22;;;5.53;;
60867;SDS011;46702;48.370;10.794;2022-08-27T06:56:12;7.35;;;5.22;;
60867;SDS011;46702;48.370;10.794;2022-08-27T06:58:39;7.35;;;5.47;;
60867;SDS011;46702;48.370;10.794;2022-08-27T07:01:13;7.88;;;5.65;;
60867;SDS011;46702;48.370;10.794;2022-08-27T07:03:40;6.78;;;5.30;;
60867;SDS011;46702;48.370;10.794;2022-08-27T07:06:07;6.18;;;4.93;;
60867;SDS011;46702;48.370;10.794;2022-08-27T07:08:35;6.20;;;5.30;;
60867;SDS011;46702;48.370;10.794;2022-08-27T07:11:01;7.15;;;5.80;;
60867;SDS011;46702;48.370;10.794;2022-08-27T07:13:27;7.20;;;5.68;;
60867;SDS011;46702;48.370;10.794;2022-08-27T07:15:54;8.20;;;5.68;;
60867;SDS011;46702;48.370;10.794;2022-08-27T07:18:20;7.88;;;6.13;;
60867;SDS011;46702;48.370;10.794;2022-08-27T07:20:46;7.47;;;5.78;;
60867;SDS011;46702;48.370;10.794;2022-08-27T07:23:12;8.38;;;6.25;;
60867;SDS011;46702;48.370;10.794;2022-08-27T07:25:39;7.38;;;5.63;;
60867;SDS011;46702;48.370;10.794;2022-08-27T07:28:05;8.75;;;6.22;;
60867;SDS011;46702;48.370;10.794;2022-08-27T07:30:31;7.35;;;5.95;;
60867;SDS011;46702;48.370;10.794;2022-08-27T07:32:57;8.23;;;5.78;;
60867;SDS011;46702;48.370;10.794;2022-08-27T07:35:23;8.93;;;6.30;;
60867;SDS011;46702;48.370;10.794;2022-08-27T07:37:48;8.77;;;5.63;;
60867;SDS011;46702;48.370;10.794;2022-08-27T07:40:15;9.32;;;6.22;;
60867;SDS011;46702;48.370;10.794;2022-08-27T07:42:41;9.73;;;5.55;;
60867;SDS011;46702;48.370;10.794;2022-08-27T07:45:26;8.88;;;6.18;;
60867;SDS011;46702;48.370;10.794;2022-08-27T07:47:52;10.02;;;6.35;;
60867;SDS011;46702;48.370;10.794;2022-08-27T07:50:19;7.68;;;6.10;;
60867;SDS011;46702;48.370;10.794;2022-08-27T07:52:45;10.30;;;5.88;;
60867;SDS011;46702;48.370;10.794;2022-08-27T07:55:11;10.32;;;6.10;;
60867;SDS011;46702;48.370;10.794;2022-08-27T07:57:38;8.88;;;6.32;;
60867;SDS011;46702;48.370;10.794;2022-08-27T08:00:05;8.55;;;6.20;;
60867;SDS011;46702;48.370;10.794;2022-08-27T08:02:34;8.77;;;5.78;;
60867;SDS011;46702;48.370;10.794;2022-08-27T08:05:00;9.40;;;6.00;;
60867;SDS011;46702;48.370;10.794;2022-08-27T08:07:27;9.23;;;6.35;;
60867;SDS011;46702;48.370;10.794;2022-08-27T08:09:53;9.90;;;6.60;;
60867;SDS011;46702;48.370;10.794;2022-08-27T08:12:18;9.05;;;6.50;;
60867;SDS011;46702;48.370;10.794;2022-08-27T08:14:44;8.63;;;6.85;;
60867;SDS011;46702;48.370;10.794;2022-08-27T08:17:11;12.30;;;7.55;;
60867;SDS011;46702;48.370;10.794;2022-08-27T08:19:38;10.02;;;6.88;;
60867;SDS011;46702;48.370;10.794;2022-08-27T08:22:04;10.13;;;7.38;;
60867;SDS011;46702;48.370;10.794;2022-08-27T08:24:30;9.95;;;7.10;;
60867;SDS011;46702;48.370;10.794;2022-08-27T08:26:55;11.40;;;8.40;;
60867;SDS011;46702;48.370;10.794;2022-08-27T08:29:21;13.05;;;8.13;;
60867;SDS011;46702;48.370;10.794;2022-08-27T08:31:46;9.68;;;6.90;;
60867;SDS011;46702;48.370;10.794;2022-08-27T08:34:12;12.88;;;8.35;;
60867;SDS011;46702;48.370;10.794;2022-08-27T08:36:38;10.07;;;7.63;;
60867;SDS011;46702;48.370;10.794;2022-08-27T08:39:03;12.95;;;7.95;;
60867;SDS011;46702;48.370;10.794;2022-08-27T08:41:33;10.07;;;8.18;;
60867;SDS011;46702;48.370;10.794;2022-08-27T08:44:25;12.70;;;7.82;;
60867;SDS011;46702;48.370;10.794;2022-08-27T08:47:02;10.30;;;8.20;;
60867;SDS011;46702;48.370;10.794;2022-08-27T08:52:09;10.20;;;7.32;;
60867;SDS011;46702;48.370;10.794;2022-08-27T08:54:41;11.15;;;7.55;;
60867;SDS011;46702;48.370;10.794;2022-08-27T09:00:11;10.70;;;6.70;;
60867;SDS011;46702;48.370;10.794;2022-08-27T09:02:38;9.93;;;7.95;;
60867;SDS011;46702;48.370;10.794;2022-08-27T09:05:12;10.98;;;6.57;;
60867;SDS011;46702;48.370;10.794;2022-08-27T09:10:14;13.27;;;8.02;;
60867;SDS011;46702;48.370;10.794;2022-08-27T09:12:50;11.10;;;7.80;;
60867;SDS011;46702;48.370;10.794;2022-08-27T09:15:21;15.88;;;8.63;;
60867;SDS011;46702;48.370;10.794;2022-08-27T09:17:50;10.27;;;7.20;;
60867;SDS011;46702;48.370;10.794;2022-08-27T09:20:18;10.23;;;6.95;;
60867;SDS011;46702;48.370;10.794;2022-08-27T09:25:25;12.68;;;7.88;;
60867;SDS011;46702;48.370;10.794;2022-08-27T09:28:04;10.45;;;7.25;;
60867;SDS011;46702;48.370;10.794;2022-08-27T09:30:53;12.27;;;8.00;;
60867;SDS011;46702;48.370;10.794;2022-08-27T09:33:20;10.10;;;6.93;;
60867;SDS011;46702;48.370;10.794;2022-08-27T09:35:45;12.98;;;8.50;;
60867;SDS011;46702;48.370;10.794;2022-08-27T09:38:49;10.50;;;8.13;;
60867;SDS011;46702;48.370;10.794;2022-08-27T09:41:06;12.57;;;7.63;;
60867;SDS011;46702;48.370;10.794;2022-08-27T09:43:37;11.80;;;7.28;;
60867;SDS011;46702;48.370;10.794;2022-08-27T09:46:17;10.50;;;8.45;;
60867;SDS011;46702;48.370;10.794;2022-08-27T09:48:45;11.25;;;7.53;;
60867;SDS011;46702;48.370;10.794;2022-08-27T09:51:12;12.27;;;7.03;;
60867;SDS011;46702;48.370;10.794;2022-08-27T09:53:47;11.63;;;8.07;;
60867;SDS011;46702;48.370;10.794;2022-08-27T09:56:21;9.70;;;7.30;;
60867;SDS011;46702;48.370;10.794;2022-08-27T09:59:11;10.32;;;7.53;;
60867;SDS011;46702;48.370;10.794;2022-08-27T10:01:52;15.98;;;7.45;;
60867;SDS011;46702;48.370;10.794;2022-08-27T10:04:37;10.50;;;6.55;;
60867;SDS011;46702;48.370;10.794;2022-08-27T10:10:21;12.25;;;7.28;;
60867;SDS011;46702;48.370;10.794;2022-08-27T10:15:46;10.15;;;6.43;;
60867;SDS011;46702;48.370;10.794;2022-08-27T10:18:37;7.28;;;5.70;;
60867;SDS011;46702;48.370;10.794;2022-08-27T10:21:20;9.00;;;5.82;;
60867;SDS011;46702;48.370;10.794;2022-08-27T10:26:53;6.75;;;5.07;;
60867;SDS011;46702;48.370;10.794;2022-08-27T10:29:30;7.13;;;5.80;;
60867;SDS011;46702;48.370;10.794;2022-08-27T10:40:14;6.05;;;4.90;;
60867;SDS011;46702;48.370;10.794;2022-08-27T10:50:49;6.88;;;4.63;;
60867;SDS011;46702;48.370;10.794;2022-08-27T10:56:29;7.22;;;4.97;;
60867;SDS011;46702;48.370;10.794;2022-08-27T11:01:58;6.45;;;4.60;;
60867;SDS011;46702;48.370;10.794;2022-08-27T11:04:28;4.55;;;3.63;;
60867;SDS011;46702;48.370;10.794;2022-08-27T11:07:07;6.28;;;4.63;;
60867;SDS011;46702;48.370;10.794;2022-08-27T11:10:08;5.63;;;4.32;;
60867;SDS011;46702;48.370;10.794;2022-08-27T11:12:59;5.90;;;4.03;;
60867;SDS011;46702;48.370;10.794;2022-08-27T11:15:31;5.30;;;4.32;;
60867;SDS011;46702;48.370;10.794;2022-08-27T11:18:04;7.68;;;4.63;;
60867;SDS011;46702;48.370;10.794;2022-08-27T11:23:24;12.45;;;8.65;;
60867;SDS011;46702;48.370;10.794;2022-08-27T11:25:57;7.83;;;6.10;;
60867;SDS011;46702;48.370;10.794;2022-08-27T11:28:29;62.33;;;24.33;;
60867;SDS011;46702;48.370;10.794;2022-08-27T11:31:57;41.78;;;20.70;;
60867;SDS011;46702;48.370;10.794;2022-08-27T11:36:39;10.95;;;4.88;;
60867;SDS011;46702;48.370;10.794;2022-08-27T11:39:43;8.52;;;5.20;;
60867;SDS011;46702;48.370;10.794;2022-08-27T11:47:35;8.18;;;4.68;;
60867;SDS011;46702;48.370;10.794;2022-08-27T11:50:03;5.22;;;4.18;;
60867;SDS011;46702;48.370;10.794;2022-08-27T11:52:39;7.28;;;4.63;;
60867;SDS011;46702;48.370;10.794;2022-08-27T11:57:46;8.10;;;4.30;;
60867;SDS011;46702;48.370;10.794;2022-08-27T12:08:10;6.05;;;4.82;;
60867;SDS011;46702;48.370;10.794;2022-08-27T12:19:28;8.90;;;5.65;;
60867;SDS011;46702;48.370;10.794;2022-08-27T12:25:24;8.55;;;5.97;;
60867;SDS011;46702;48.370;10.794;2022-08-27T12:27:54;7.43;;;5.75;;
60867;SDS011;46702;48.370;10.794;2022-08-27T12:33:09;6.05;;;5.28;;
60867;SDS011;46702;48.370;10.794;2022-08-27T12:35:45;7.38;;;5.60;;
60867;SDS011;46702;48.370;10.794;2022-08-27T12:38:18;7.20;;;4.90;;
60867;SDS011;46702;48.370;10.794;2022-08-27T12:40:59;8.82;;;5.40;;
60867;SDS011;46702;48.370;10.794;2022-08-27T12:43:30;8.35;;;6.25;;
60867;SDS011;46702;48.370;10.794;2022-08-27T12:46:02;8.57;;;5.68;;
60867;SDS011;46702;48.370;10.794;2022-08-27T12:48:45;8.13;;;5.60;;
60867;SDS011;46702;48.370;10.794;2022-08-27T12:51:25;6.18;;;4.50;;
60867;SDS011;46702;48.370;10.794;2022-08-27T12:54:19;4.90;;;4.05;;
60867;SDS011;46702;48.370;10.794;2022-08-27T13:07:40;5.97;;;4.00;;
60867;SDS011;46702;48.370;10.794;2022-08-27T13:13:26;7.18;;;4.13;;
60867;SDS011;46702;48.370;10.794;2022-08-27T13:15:56;7.57;;;4.75;;
60867;SDS011;46702;48.370;10.794;2022-08-27T13:18:26;5.90;;;4.32;;
60867;SDS011;46702;48.370;10.794;2022-08-27T13:21:00;5.72;;;4.30;;
60867;SDS011;46702;48.370;10.794;2022-08-27T13:23:28;6.32;;;4.90;;
60867;SDS011;46702;48.370;10.794;2022-08-27T13:26:06;7.10;;;5.18;;
60867;SDS011;46702;48.370;10.794;2022-08-27T13:28:35;6.53;;;5.22;;
60867;SDS011;46702;48.370;10.794;2022-08-27T13:33:33;6.15;;;4.93;;
60867;SDS011;46702;48.370;10.794;2022-08-27T13:36:00;5.60;;;4.57;;
60867;SDS011;46702;48.370;10.794;2022-08-27T13:38:29;7.00;;;5.00;;
60867;SDS011;46702;48.370;10.794;2022-08-27T13:43:27;5.28;;;4.28;;
60867;SDS011;46702;48.370;10.794;2022-08-27T13:48:45;5.15;;;4.03;;
60867;SDS011;46702;48.370;10.794;2022-08-27T13:51:13;4.93;;;3.55;;
60867;SDS011;46702;48.370;10.794;2022-08-27T13:53:46;6.82;;;3.90;;
60867;SDS011;46702;48.370;10.794;2022-08-27T13:56:35;4.75;;;3.67;;
60867;SDS011;46702;48.370;10.794;2022-08-27T13:59:07;4.72;;;3.80;;
60867;SDS011;46702;48.370;10.794;2022-08-27T14:04:23;5.28;;;3.97;;
60867;SDS011;46702;48.370;10.794;2022-08-27T14:07:08;4.70;;;3.72;;
60867;SDS011;46702;48.370;10.794;2022-08-27T14:09:40;6.55;;;3.70;;
60867;SDS011;46702;48.370;10.794;2022-08-27T14:12:08;4.03;;;2.90;;
60867;SDS011;46702;48.370;10.794;2022-08-27T14:14:35;4.47;;;3.15;;
60867;SDS011;46702;48.370;10.794;2022-08-27T14:17:04;4.10;;;2.90;;
60867;SDS011;46702;48.370;10.794;2022-08-27T14:19:33;4.93;;;3.40;;
60867;SDS011;46702;48.370;10.794;2022-08-27T14:21:59;4.50;;;3.67;;
60867;SDS011;46702;48.370;10.794;2022-08-27T14:24:25;3.85;;;3.20;;
60867;SDS011;46702;48.370;10.794;2022-08-27T14:26:53;4.38;;;3.50;;
60867;SDS011;46702;48.370;10.794;2022-08-27T14:29:26;4.60;;;3.47;;
60867;SDS011;46702;48.370;10.794;2022-08-27T14:31:52;4.90;;;3.25;;
60867;SDS011;46702;48.370;10.794;2022-08-27T14:34:17;4.10;;;3.10;;
60867;SDS011;46702;48.370;10.794;2022-08-27T14:36:43;4.85;;;3.47;;
60867;SDS011;46702;48.370;10.794;2022-08-27T14:39:09;4.05;;;3.20;;
60867;SDS011;46702;48.370;10.794;2022-08-27T14:41:35;3.33;;;2.90;;
60867;SDS011;46702;48.370;10.794;2022-08-27T14:44:01;5.00;;;3.70;;
60867;SDS011;46702;48.370;10.794;2022-08-27T14:46:28;3.65;;;3.30;;
60867;SDS011;46702;48.370;10.794;2022-08-27T14:48:57;3.80;;;3.40;;
60867;SDS011;46702;48.370;10.794;2022-08-27T14:51:28;4.25;;;3.40;;
60867;SDS011;46702;48.370;10.794;2022-08-27T14:53:56;4.18;;;3.35;;
60867;SDS011;46702;48.370;10.794;2022-08-27T14:56:23;4.13;;;3.10;;
60867;SDS011;46702;48.370;10.794;2022-08-27T14:58:49;4.10;;;2.90;;
60867;SDS011;46702;48.370;10.794;2022-08-27T15:03:47;3.10;;;2.70;;
60867;SDS011;46702;48.370;10.794;2022-08-27T15:06:14;3.58;;;2.70;;
60867;SDS011;46702;48.370;10.794;2022-08-27T15:08:41;2.60;;;2.40;;
60867;SDS011;46702;48.370;10.794;2022-08-27T15:11:18;3.40;;;3.08;;
60867;SDS011;46702;48.370;10.794;2022-08-27T15:13:47;3.20;;;2.80;;
60867;SDS011;46702;48.370;10.794;2022-08-27T15:16:15;2.97;;;2.60;;
60867;SDS011;46702;48.370;10.794;2022-08-27T15:18:50;2.83;;;2.53;;
60867;SDS011;46702;48.370;10.794;2022-08-27T15:21:16;3.00;;;2.70;;
60867;SDS011;46702;48.370;10.794;2022-08-27T15:23:42;3.22;;;2.55;;
60867;SDS011;46702;48.370;10.794;2022-08-27T15:26:12;3.72;;;3.03;;
60867;SDS011;46702;48.370;10.794;2022-08-27T15:28:37;3.88;;;2.83;;
60867;SDS011;46702;48.370;10.794;2022-08-27T15:31:03;3.60;;;3.00;;
60867;SDS011;46702;48.370;10.794;2022-08-27T15:33:29;3.97;;;3.10;;
60867;SDS011;46702;48.370;10.794;2022-08-27T15:35:55;2.83;;;2.55;;
60867;SDS011;46702;48.370;10.794;2022-08-27T15:38:21;5.30;;;3.35;;
60867;SDS011;46702;48.370;10.794;2022-08-27T15:40:46;3.58;;;3.20;;
60867;SDS011;46702;48.370;10.794;2022-08-27T15:43:12;4.15;;;3.10;;
60867;SDS011;46702;48.370;10.794;2022-08-27T15:48:06;4.65;;;3.17;;
60867;SDS011;46702;48.370;10.794;2022-08-27T15:50:31;3.35;;;2.88;;
60867;SDS011;46702;48.370;10.794;2022-08-27T15:52:59;4.35;;;2.80;;
60867;SDS011;46702;48.370;10.794;2022-08-27T15:55:29;4.95;;;3.25;;
60867;SDS011;46702;48.370;10.794;2022-08-27T15:57:56;3.45;;;2.80;;
60867;SDS011;46702;48.370;10.794;2022-08-27T16:00:23;3.60;;;2.78;;
60867;SDS011;46702;48.370;10.794;2022-08-27T16:02:50;3.42;;;2.83;;
60867;SDS011;46702;48.370;10.794;2022-08-27T16:05:17;3.83;;;2.70;;
60867;SDS011;46702;48.370;10.794;2022-08-27T16:07:44;3.30;;;3.00;;
60867;SDS011;46702;48.370;10.794;2022-08-27T16:10:10;4.00;;;3.17;;
60867;SDS011;46702;48.370;10.794;2022-08-27T16:12:36;3.65;;;3.08;;
60867;SDS011;46702;48.370;10.794;2022-08-27T16:15:02;4.13;;;2.83;;
60867;SDS011;46702;48.370;10.794;2022-08-27T16:17:29;3.45;;;3.05;;
60867;SDS011;46702;48.370;10.794;2022-08-27T16:19:55;4.85;;;3.17;;
60867;SDS011;46702;48.370;10.794;2022-08-27T16:22:21;3.95;;;3.10;;
60867;SDS011;46702;48.370;10.794;2022-08-27T16:24:47;3.78;;;3.35;;
60867;SDS011;46702;48.370;10.794;2022-08-27T16:27:12;3.97;;;3.03;;
60867;SDS011;46702;48.370;10.794;2022-08-27T16:29:38;4.60;;;3.63;;
60867;SDS011;46702;48.370;10.794;2022-08-27T16:32:03;5.05;;;3.20;;
60867;SDS011;46702;48.370;10.794;2022-08-27T16:34:29;5.22;;;3.55;;
60867;SDS011;46702;48.370;10.794;2022-08-27T16:36:55;4.05;;;3.40;;